sensor_id;sensor_type;location;lat;lon;timestamp;temperature;humidity
64561;DHT22;50960;46.838;16.838;2023-06-10T04:18:47;16.30;99.90
64561;DHT22;50960;46.838;16.838;2023-06-10T04:21:13;16.30;99.90
64561;DHT22;50960;46.838;16.838;2023-06-10T04:23:39;16.40;99.90
64561;DHT22;50960;46.838;16.838;2023-06-10T04:26:05;16.40;99.90
64561;DHT22;50960;46.838;16.838;2023-06-10T04:28:32;16.50;99.90
64561;DHT22;50960;46.838;16.838;2023-06-10T04:30:58;16.50;99.90
64561;DHT22;50960;46.838;16.838;2023-06-10T04:33:24;16.60;99.90
64561;DHT22;50960;46.838;16.838;2023-06-10T04:35:50;16.70;99.90
64561;DHT22;50960;46.838;16.838;2023-06-10T04:38:17;16.70;99.90
64561;DHT22;50960;46.838;16.838;2023-06-10T04:40:43;16.90;99.90
64561;DHT22;50960;46.838;16.838;2023-06-10T04:43:10;17.10;99.90
64561;DHT22;50960;46.838;16.838;2023-06-10T04:45:36;17.30;99.90
64561;DHT22;50960;46.838;16.838;2023-06-10T04:48:03;17.40;99.90
64561;DHT22;50960;46.838;16.838;2023-06-10T04:50:29;17.60;99.90
64561;DHT22;50960;46.838;16.838;2023-06-10T04:52:55;17.60;99.90
64561;DHT22;50960;46.838;16.838;2023-06-10T04:55:23;17.70;99.90
64561;DHT22;50960;46.838;16.838;2023-06-10T04:57:49;17.70;99.90
64561;DHT22;50960;46.838;16.838;2023-06-10T05:00:16;17.80;99.60
64561;DHT22;50960;46.838;16.838;2023-06-10T05:02:43;17.90;99.20
64561;DHT22;50960;46.838;16.838;2023-06-10T05:05:10;18.00;99.10
64561;DHT22;50960;46.838;16.838;2023-06-10T05:07:37;18.30;99.50
64561;DHT22;50960;46.838;16.838;2023-06-10T05:10:03;18.30;98.70
64561;DHT22;50960;46.838;16.838;2023-06-10T05:12:30;18.10;98.00
64561;DHT22;50960;46.838;16.838;2023-06-10T05:14:56;18.00;98.50
64561;DHT22;50960;46.838;16.838;2023-06-10T05:17:22;18.00;98.50
64561;DHT22;50960;46.838;16.838;2023-06-10T05:19:49;18.20;98.60
64561;DHT22;50960;46.838;16.838;2023-06-10T05:22:15;18.00;97.70
64561;DHT22;50960;46.838;16.838;2023-06-10T05:24:42;18.00;98.10
64561;DHT22;50960;46.838;16.838;2023-06-10T05:27:10;18.20;97.80
64561;DHT22;50960;46.838;16.838;2023-06-10T05:29:37;18.30;98.60
64561;DHT22;50960;46.838;16.838;2023-06-10T05:32:05;18.20;97.50
64561;DHT22;50960;46.838;16.838;2023-06-10T05:34:32;18.20;98.10
64561;DHT22;50960;46.838;16.838;2023-06-10T05:36:58;18.20;98.00
64561;DHT22;50960;46.838;16.838;2023-06-10T05:39:24;18.50;97.50
64561;DHT22;50960;46.838;16.838;2023-06-10T05:41:51;18.60;97.90
64561;DHT22;50960;46.838;16.838;2023-06-10T05:44:17;18.70;97.40
64561;DHT22;50960;46.838;16.838;2023-06-10T05:46:43;18.70;97.30
64561;DHT22;50960;46.838;16.838;2023-06-10T05:49:09;18.80;97.40
64561;DHT22;50960;46.838;16.838;2023-06-10T05:51:36;18.80;97.30
64561;DHT22;50960;46.838;16.838;2023-06-10T05:54:03;19.00;97.40
64561;DHT22;50960;46.838;16.838;2023-06-10T05:56:29;19.10;97.10
64561;DHT22;50960;46.838;16.838;2023-06-10T05:58:56;19.20;96.50
64561;DHT22;50960;46.838;16.838;2023-06-10T06:01:22;19.10;97.00
64561;DHT22;50960;46.838;16.838;2023-06-10T06:03:48;19.10;96.80
64561;DHT22;50960;46.838;16.838;2023-06-10T06:06:15;19.50;97.00
64561;DHT22;50960;46.838;16.838;2023-06-10T06:08:41;19.70;96.20
64561;DHT22;50960;46.838;16.838;2023-06-10T06:11:07;20.00;96.60
64561;DHT22;50960;46.838;16.838;2023-06-10T06:13:34;19.80;96.50
64561;DHT22;50960;46.838;16.838;2023-06-10T06:16:00;20.00;96.00
64561;DHT22;50960;46.838;16.838;2023-06-10T06:18:26;20.10;95.00
64561;DHT22;50960;46.838;16.838;2023-06-10T06:20:53;20.00;95.90
64561;DHT22;50960;46.838;16.838;2023-06-10T06:23:20;20.00;96.70
64561;DHT22;50960;46.838;16.838;2023-06-10T06:25:46;20.20;96.50
64561;DHT22;50960;46.838;16.838;2023-06-10T06:28:12;19.90;96.70
64561;DHT22;50960;46.838;16.838;2023-06-10T06:30:39;19.80;96.90
64561;DHT22;50960;46.838;16.838;2023-06-10T06:33:05;19.90;96.00
64561;DHT22;50960;46.838;16.838;2023-06-10T06:35:33;19.80;97.10
64561;DHT22;50960;46.838;16.838;2023-06-10T06:38:00;19.80;97.50
64561;DHT22;50960;46.838;16.838;2023-06-10T06:40:26;20.00;97.20
64561;DHT22;50960;46.838;16.838;2023-06-10T06:42:52;20.30;96.40
64561;DHT22;50960;46.838;16.838;2023-06-10T06:45:19;20.40;95.80
64561;DHT22;50960;46.838;16.838;2023-06-10T06:47:45;20.70;95.40
64561;DHT22;50960;46.838;16.838;2023-06-10T06:50:12;20.70;95.40
64561;DHT22;50960;46.838;16.838;2023-06-10T06:52:38;20.50;95.50
64561;DHT22;50960;46.838;16.838;2023-06-10T06:55:06;20.80;95.20
64561;DHT22;50960;46.838;16.838;2023-06-10T06:57:32;21.00;95.30
64561;DHT22;50960;46.838;16.838;2023-06-10T06:59:59;20.80;95.20
64561;DHT22;50960;46.838;16.838;2023-06-10T07:02:25;20.90;95.20
64561;DHT22;50960;46.838;16.838;2023-06-10T07:04:51;21.00;95.20
64561;DHT22;50960;46.838;16.838;2023-06-10T07:07:21;21.30;94.40
64561;DHT22;50960;46.838;16.838;2023-06-10T07:09:47;21.70;94.40
64561;DHT22;50960;46.838;16.838;2023-06-10T07:12:14;21.60;93.80
64561;DHT22;50960;46.838;16.838;2023-06-10T07:14:40;21.60;93.80
64561;DHT22;50960;46.838;16.838;2023-06-10T07:17:07;21.80;93.40
64561;DHT22;50960;46.838;16.838;2023-06-10T07:19:33;22.20;92.90
64561;DHT22;50960;46.838;16.838;2023-06-10T07:21:59;22.40;91.90
64561;DHT22;50960;46.838;16.838;2023-06-10T07:24:26;22.70;91.70
64561;DHT22;50960;46.838;16.838;2023-06-10T07:26:53;22.40;91.30
64561;DHT22;50960;46.838;16.838;2023-06-10T07:29:19;22.30;92.30
64561;DHT22;50960;46.838;16.838;2023-06-10T07:31:47;21.90;92.10
64561;DHT22;50960;46.838;16.838;2023-06-10T07:34:13;22.00;93.00
64561;DHT22;50960;46.838;16.838;2023-06-10T07:36:40;22.00;92.40
64561;DHT22;50960;46.838;16.838;2023-06-10T07:39:06;22.10;92.90
64561;DHT22;50960;46.838;16.838;2023-06-10T07:41:33;22.10;92.90
64561;DHT22;50960;46.838;16.838;2023-06-10T07:44:00;21.90;93.00
64561;DHT22;50960;46.838;16.838;2023-06-10T07:46:26;21.90;92.80
64561;DHT22;50960;46.838;16.838;2023-06-10T07:48:53;22.00;93.10
64561;DHT22;50960;46.838;16.838;2023-06-10T07:51:21;21.40;93.70
64561;DHT22;50960;46.838;16.838;2023-06-10T07:53:47;21.10;94.10
64561;DHT22;50960;46.838;16.838;2023-06-10T07:56:14;20.90;94.90
64561;DHT22;50960;46.838;16.838;2023-06-10T07:58:41;21.30;94.60
64561;DHT22;50960;46.838;16.838;2023-06-10T08:01:07;21.20;95.10
64561;DHT22;50960;46.838;16.838;2023-06-10T08:03:34;21.30;95.00
64561;DHT22;50960;46.838;16.838;2023-06-10T08:06:01;21.10;95.40
64561;DHT22;50960;46.838;16.838;2023-06-10T08:10:54;21.70;94.00
64561;DHT22;50960;46.838;16.838;2023-06-10T08:13:20;22.00;94.20
64561;DHT22;50960;46.838;16.838;2023-06-10T08:15:47;22.00;93.20
64561;DHT22;50960;46.838;16.838;2023-06-10T08:18:16;21.80;92.20
64561;DHT22;50960;46.838;16.838;2023-06-10T08:20:43;21.70;92.90
64561;DHT22;50960;46.838;16.838;2023-06-10T08:23:09;21.10;92.90
64561;DHT22;50960;46.838;16.838;2023-06-10T08:28:02;21.60;93.40
64561;DHT22;50960;46.838;16.838;2023-06-10T08:30:29;22.00;92.40
64561;DHT22;50960;46.838;16.838;2023-06-10T08:32:56;22.00;92.70
64561;DHT22;50960;46.838;16.838;2023-06-10T08:35:22;22.40;91.70
64561;DHT22;50960;46.838;16.838;2023-06-10T08:37:49;22.80;91.50
64561;DHT22;50960;46.838;16.838;2023-06-10T08:40:16;22.50;91.70
64561;DHT22;50960;46.838;16.838;2023-06-10T08:42:48;23.20;90.60
64561;DHT22;50960;46.838;16.838;2023-06-10T08:45:18;23.20;88.40
64561;DHT22;50960;46.838;16.838;2023-06-10T08:47:45;23.10;89.60
64561;DHT22;50960;46.838;16.838;2023-06-10T08:50:16;22.90;89.80
64561;DHT22;50960;46.838;16.838;2023-06-10T08:52:46;22.90;90.20
64561;DHT22;50960;46.838;16.838;2023-06-10T08:55:19;23.00;90.20
64561;DHT22;50960;46.838;16.838;2023-06-10T08:57:48;22.90;88.40
64561;DHT22;50960;46.838;16.838;2023-06-10T09:00:16;22.40;90.30
64561;DHT22;50960;46.838;16.838;2023-06-10T09:02:43;23.10;90.00
64561;DHT22;50960;46.838;16.838;2023-06-10T09:05:10;23.10;88.80
64561;DHT22;50960;46.838;16.838;2023-06-10T09:07:37;22.70;90.60
64561;DHT22;50960;46.838;16.838;2023-06-10T09:10:04;23.10;88.50
64561;DHT22;50960;46.838;16.838;2023-06-10T09:12:36;23.30;90.40
64561;DHT22;50960;46.838;16.838;2023-06-10T09:15:05;23.50;88.20
64561;DHT22;50960;46.838;16.838;2023-06-10T09:17:31;23.70;87.60
64561;DHT22;50960;46.838;16.838;2023-06-10T09:19:59;23.40;85.50
64561;DHT22;50960;46.838;16.838;2023-06-10T09:22:26;23.40;88.50
64561;DHT22;50960;46.838;16.838;2023-06-10T09:25:13;23.90;88.60
64561;DHT22;50960;46.838;16.838;2023-06-10T09:27:46;23.90;86.20
64561;DHT22;50960;46.838;16.838;2023-06-10T09:30:32;23.90;86.00
64561;DHT22;50960;46.838;16.838;2023-06-10T09:33:01;23.80;84.30
64561;DHT22;50960;46.838;16.838;2023-06-10T09:35:29;24.00;85.20
64561;DHT22;50960;46.838;16.838;2023-06-10T09:37:59;23.90;84.90
64561;DHT22;50960;46.838;16.838;2023-06-10T09:40:27;24.30;84.20
64561;DHT22;50960;46.838;16.838;2023-06-10T09:43:00;24.90;82.30
64561;DHT22;50960;46.838;16.838;2023-06-10T09:45:30;24.60;81.20
64561;DHT22;50960;46.838;16.838;2023-06-10T09:47:57;24.20;84.40
64561;DHT22;50960;46.838;16.838;2023-06-10T09:50:23;23.40;82.00
64561;DHT22;50960;46.838;16.838;2023-06-10T09:52:50;23.30;83.70
64561;DHT22;50960;46.838;16.838;2023-06-10T09:55:17;24.20;82.10
64561;DHT22;50960;46.838;16.838;2023-06-10T09:57:44;24.60;80.80
64561;DHT22;50960;46.838;16.838;2023-06-10T10:00:14;24.50;79.70
64561;DHT22;50960;46.838;16.838;2023-06-10T10:05:16;23.00;84.70
64561;DHT22;50960;46.838;16.838;2023-06-10T10:07:44;22.70;89.20
64561;DHT22;50960;46.838;16.838;2023-06-10T10:10:12;22.40;89.50
64561;DHT22;50960;46.838;16.838;2023-06-10T10:12:39;22.60;90.70
64561;DHT22;50960;46.838;16.838;2023-06-10T10:15:08;22.50;90.00
64561;DHT22;50960;46.838;16.838;2023-06-10T10:18:19;22.60;88.10
64561;DHT22;50960;46.838;16.838;2023-06-10T10:20:29;22.70;88.50
64561;DHT22;50960;46.838;16.838;2023-06-10T10:22:58;22.70;86.70
64561;DHT22;50960;46.838;16.838;2023-06-10T10:25:29;23.10;86.30
64561;DHT22;50960;46.838;16.838;2023-06-10T10:28:10;23.50;88.60
64561;DHT22;50960;46.838;16.838;2023-06-10T10:30:48;24.10;88.30
64561;DHT22;50960;46.838;16.838;2023-06-10T10:35:49;23.60;82.40
64561;DHT22;50960;46.838;16.838;2023-06-10T10:38:16;23.80;84.00
64561;DHT22;50960;46.838;16.838;2023-06-10T10:40:44;23.40;84.20
64561;DHT22;50960;46.838;16.838;2023-06-10T10:43:11;23.40;82.20
64561;DHT22;50960;46.838;16.838;2023-06-10T10:45:37;23.70;82.50
64561;DHT22;50960;46.838;16.838;2023-06-10T10:48:09;23.80;81.30
64561;DHT22;50960;46.838;16.838;2023-06-10T10:50:39;23.60;79.30
64561;DHT22;50960;46.838;16.838;2023-06-10T10:53:06;23.40;79.80
64561;DHT22;50960;46.838;16.838;2023-06-10T10:58:06;23.30;80.20
64561;DHT22;50960;46.838;16.838;2023-06-10T11:00:37;23.70;80.60
64561;DHT22;50960;46.838;16.838;2023-06-10T11:05:42;23.90;78.50
64561;DHT22;50960;46.838;16.838;2023-06-10T11:10:57;23.80;77.90
64561;DHT22;50960;46.838;16.838;2023-06-10T11:13:25;23.50;78.20
64561;DHT22;50960;46.838;16.838;2023-06-10T11:15:53;23.60;80.20
64561;DHT22;50960;46.838;16.838;2023-06-10T11:18:29;24.00;82.30
64561;DHT22;50960;46.838;16.838;2023-06-10T11:20:56;24.10;78.20
64561;DHT22;50960;46.838;16.838;2023-06-10T11:28:35;23.90;75.30
64561;DHT22;50960;46.838;16.838;2023-06-10T11:31:02;24.20;77.90
64561;DHT22;50960;46.838;16.838;2023-06-10T11:33:28;24.70;78.30
64561;DHT22;50960;46.838;16.838;2023-06-10T11:35:55;25.00;73.10
64561;DHT22;50960;46.838;16.838;2023-06-10T11:38:22;25.00;69.90
64561;DHT22;50960;46.838;16.838;2023-06-10T11:40:49;25.20;69.40
64561;DHT22;50960;46.838;16.838;2023-06-10T11:43:19;25.50;66.90
64561;DHT22;50960;46.838;16.838;2023-06-10T11:45:45;25.30;67.20
64561;DHT22;50960;46.838;16.838;2023-06-10T11:48:15;25.80;68.20
64561;DHT22;50960;46.838;16.838;2023-06-10T11:50:41;26.30;67.50
64561;DHT22;50960;46.838;16.838;2023-06-10T11:53:08;26.00;68.30
64561;DHT22;50960;46.838;16.838;2023-06-10T11:55:45;26.00;66.40
64561;DHT22;50960;46.838;16.838;2023-06-10T11:58:22;25.80;68.00
64561;DHT22;50960;46.838;16.838;2023-06-10T12:00:53;26.90;66.30
64561;DHT22;50960;46.838;16.838;2023-06-10T12:03:20;27.40;59.80
64561;DHT22;50960;46.838;16.838;2023-06-10T12:06:05;26.80;61.80
64561;DHT22;50960;46.838;16.838;2023-06-10T12:08:33;26.90;60.50
64561;DHT22;50960;46.838;16.838;2023-06-10T12:10:59;26.40;62.40
64561;DHT22;50960;46.838;16.838;2023-06-10T12:13:27;26.60;62.20
64561;DHT22;50960;46.838;16.838;2023-06-10T12:15:54;27.50;61.80
64561;DHT22;50960;46.838;16.838;2023-06-10T12:18:24;27.50;58.00
64561;DHT22;50960;46.838;16.838;2023-06-10T12:20:51;27.80;58.40
64561;DHT22;50960;46.838;16.838;2023-06-10T12:23:18;28.00;60.90
64561;DHT22;50960;46.838;16.838;2023-06-10T12:25:55;28.20;57.50
64561;DHT22;50960;46.838;16.838;2023-06-10T12:28:25;29.00;56.20
64561;DHT22;50960;46.838;16.838;2023-06-10T12:31:06;27.30;60.40
64561;DHT22;50960;46.838;16.838;2023-06-10T12:33:33;26.60;61.30
64561;DHT22;50960;46.838;16.838;2023-06-10T12:35:59;26.90;62.80
64561;DHT22;50960;46.838;16.838;2023-06-10T12:38:26;28.30;61.30
64561;DHT22;50960;46.838;16.838;2023-06-10T12:41:02;28.90;58.60
64561;DHT22;50960;46.838;16.838;2023-06-10T12:43:31;29.80;55.20
64561;DHT22;50960;46.838;16.838;2023-06-10T12:46:09;30.50;53.50
64561;DHT22;50960;46.838;16.838;2023-06-10T12:48:35;30.80;52.10
64561;DHT22;50960;46.838;16.838;2023-06-10T12:51:01;27.60;53.40
64561;DHT22;50960;46.838;16.838;2023-06-10T12:53:28;27.30;54.20
64561;DHT22;50960;46.838;16.838;2023-06-10T12:55:54;27.90;56.70
64561;DHT22;50960;46.838;16.838;2023-06-10T12:58:21;29.60;56.50
64561;DHT22;50960;46.838;16.838;2023-06-10T13:00:48;30.80;62.10
64561;DHT22;50960;46.838;16.838;2023-06-10T13:03:14;29.40;64.30
64561;DHT22;50960;46.838;16.838;2023-06-10T13:05:41;28.90;61.60
64561;DHT22;50960;46.838;16.838;2023-06-10T13:10:38;29.80;53.10
64561;DHT22;50960;46.838;16.838;2023-06-10T13:13:04;30.60;50.10
64561;DHT22;50960;46.838;16.838;2023-06-10T13:15:32;30.90;47.70
64561;DHT22;50960;46.838;16.838;2023-06-10T13:18:03;31.20;48.40
64561;DHT22;50960;46.838;16.838;2023-06-10T13:20:30;31.00;45.90
64561;DHT22;50960;46.838;16.838;2023-06-10T13:22:57;30.10;49.30
64561;DHT22;50960;46.838;16.838;2023-06-10T13:25:23;28.00;49.00
64561;DHT22;50960;46.838;16.838;2023-06-10T13:27:50;27.90;52.10
64561;DHT22;50960;46.838;16.838;2023-06-10T13:30:16;28.50;52.40
64561;DHT22;50960;46.838;16.838;2023-06-10T13:32:42;28.80;51.00
64561;DHT22;50960;46.838;16.838;2023-06-10T13:35:08;30.20;51.50
64561;DHT22;50960;46.838;16.838;2023-06-10T13:40:03;29.40;49.50
64561;DHT22;50960;46.838;16.838;2023-06-10T13:42:29;32.50;46.30
64561;DHT22;50960;46.838;16.838;2023-06-10T13:44:56;36.10;34.60
64561;DHT22;50960;46.838;16.838;2023-06-10T13:47:22;36.70;36.40
64561;DHT22;50960;46.838;16.838;2023-06-10T13:49:49;40.30;35.40
64561;DHT22;50960;46.838;16.838;2023-06-10T13:52:15;42.00;30.50
64561;DHT22;50960;46.838;16.838;2023-06-10T13:54:41;40.50;30.60
64561;DHT22;50960;46.838;16.838;2023-06-10T13:57:07;40.60;28.80
64561;DHT22;50960;46.838;16.838;2023-06-10T13:59:36;42.10;33.20
64561;DHT22;50960;46.838;16.838;2023-06-10T14:02:03;41.90;28.00
64561;DHT22;50960;46.838;16.838;2023-06-10T14:04:29;44.50;27.80
64561;DHT22;50960;46.838;16.838;2023-06-10T14:06:56;47.10;25.80
64561;DHT22;50960;46.838;16.838;2023-06-10T14:09:23;46.20;24.30
64561;DHT22;50960;46.838;16.838;2023-06-10T14:11:50;40.50;27.20
64561;DHT22;50960;46.838;16.838;2023-06-10T14:14:16;40.80;25.00
64561;DHT22;50960;46.838;16.838;2023-06-10T14:16:43;42.00;27.90
64561;DHT22;50960;46.838;16.838;2023-06-10T14:19:09;41.00;27.40
64561;DHT22;50960;46.838;16.838;2023-06-10T14:21:35;45.80;27.90
64561;DHT22;50960;46.838;16.838;2023-06-10T14:24:01;42.90;22.50
64561;DHT22;50960;46.838;16.838;2023-06-10T14:26:28;41.80;23.90
64561;DHT22;50960;46.838;16.838;2023-06-10T14:28:54;41.90;24.80
64561;DHT22;50960;46.838;16.838;2023-06-10T14:31:20;43.10;26.90
64561;DHT22;50960;46.838;16.838;2023-06-10T14:33:47;48.20;25.30
64561;DHT22;50960;46.838;16.838;2023-06-10T14:36:13;51.30;23.70
64561;DHT22;50960;46.838;16.838;2023-06-10T14:38:39;52.00;21.60
64561;DHT22;50960;46.838;16.838;2023-06-10T14:41:05;51.80;22.50
64561;DHT22;50960;46.838;16.838;2023-06-10T14:43:33;49.30;20.50
64561;DHT22;50960;46.838;16.838;2023-06-10T14:45:59;50.70;19.90
64561;DHT22;50960;46.838;16.838;2023-06-10T14:48:25;50.70;20.60
64561;DHT22;50960;46.838;16.838;2023-06-10T14:50:52;52.30;21.20
64561;DHT22;50960;46.838;16.838;2023-06-10T14:53:18;55.30;21.10
64561;DHT22;50960;46.838;16.838;2023-06-10T14:55:44;58.30;20.10
64561;DHT22;50960;46.838;16.838;2023-06-10T14:58:11;50.70;20.00
64561;DHT22;50960;46.838;16.838;2023-06-10T15:00:38;55.00;21.10
64561;DHT22;50960;46.838;16.838;2023-06-10T15:03:04;51.50;20.40
64561;DHT22;50960;46.838;16.838;2023-06-10T15:05:31;56.50;20.20
64561;DHT22;50960;46.838;16.838;2023-06-10T15:07:59;52.90;18.10
64561;DHT22;50960;46.838;16.838;2023-06-10T15:10:26;43.30;19.60
64561;DHT22;50960;46.838;16.838;2023-06-10T15:12:53;43.80;22.00
64561;DHT22;50960;46.838;16.838;2023-06-10T15:15:22;45.10;21.30
64561;DHT22;50960;46.838;16.838;2023-06-10T15:17:49;44.70;21.30
64561;DHT22;50960;46.838;16.838;2023-06-10T15:20:15;50.20;23.00
64561;DHT22;50960;46.838;16.838;2023-06-10T15:22:41;51.40;19.00
64561;DHT22;50960;46.838;16.838;2023-06-10T15:25:08;52.90;19.40
64561;DHT22;50960;46.838;16.838;2023-06-10T15:27:34;53.30;20.30
64561;DHT22;50960;46.838;16.838;2023-06-10T15:30:01;45.20;20.10
64561;DHT22;50960;46.838;16.838;2023-06-10T15:32:28;44.40;20.50
64561;DHT22;50960;46.838;16.838;2023-06-10T15:34:54;48.10;17.90
64561;DHT22;50960;46.838;16.838;2023-06-10T15:37:20;51.10;21.30
64561;DHT22;50960;46.838;16.838;2023-06-10T15:39:47;47.70;18.60
64561;DHT22;50960;46.838;16.838;2023-06-10T15:42:13;47.80;19.30
64561;DHT22;50960;46.838;16.838;2023-06-10T15:44:40;56.40;19.50
64561;DHT22;50960;46.838;16.838;2023-06-10T15:47:06;58.00;19.50
64561;DHT22;50960;46.838;16.838;2023-06-10T15:49:32;58.60;16.20
64561;DHT22;50960;46.838;16.838;2023-06-10T15:51:58;57.00;16.60
64561;DHT22;50960;46.838;16.838;2023-06-10T15:56:51;56.80;18.40
64561;DHT22;50960;46.838;16.838;2023-06-10T15:59:17;50.50;16.10
64561;DHT22;50960;46.838;16.838;2023-06-10T16:01:44;47.80;17.90
64561;DHT22;50960;46.838;16.838;2023-06-10T16:04:10;47.70;18.90
64561;DHT22;50960;46.838;16.838;2023-06-10T16:06:36;48.80;20.90
64561;DHT22;50960;46.838;16.838;2023-06-10T16:09:03;50.30;21.40
64561;DHT22;50960;46.838;16.838;2023-06-10T16:11:29;51.30;20.30
64561;DHT22;50960;46.838;16.838;2023-06-10T16:13:56;52.20;19.80
64561;DHT22;50960;46.838;16.838;2023-06-10T16:16:22;51.40;19.40
64561;DHT22;50960;46.838;16.838;2023-06-10T16:18:48;51.80;19.60
64561;DHT22;50960;46.838;16.838;2023-06-10T16:21:15;52.20;20.80
64561;DHT22;50960;46.838;16.838;2023-06-10T16:23:41;51.60;19.90
64561;DHT22;50960;46.838;16.838;2023-06-10T16:26:07;48.90;20.40
64561;DHT22;50960;46.838;16.838;2023-06-10T16:28:33;49.50;21.60
64561;DHT22;50960;46.838;16.838;2023-06-10T16:31:00;47.60;21.50
64561;DHT22;50960;46.838;16.838;2023-06-10T16:33:26;46.20;21.90
64561;DHT22;50960;46.838;16.838;2023-06-10T16:35:52;42.50;22.70
64561;DHT22;50960;46.838;16.838;2023-06-10T16:38:18;42.10;23.10
64561;DHT22;50960;46.838;16.838;2023-06-10T16:40:45;41.10;25.50
64561;DHT22;50960;46.838;16.838;2023-06-10T16:43:12;40.20;27.40
64561;DHT22;50960;46.838;16.838;2023-06-10T16:45:38;38.30;26.60
64561;DHT22;50960;46.838;16.838;2023-06-10T16:48:04;38.20;27.40
64561;DHT22;50960;46.838;16.838;2023-06-10T16:50:32;38.10;28.20
64561;DHT22;50960;46.838;16.838;2023-06-10T16:52:58;38.80;24.20
64561;DHT22;50960;46.838;16.838;2023-06-10T16:55:24;36.80;26.60
64561;DHT22;50960;46.838;16.838;2023-06-10T17:00:18;39.10;27.40
64561;DHT22;50960;46.838;16.838;2023-06-10T17:02:46;42.40;24.50
64561;DHT22;50960;46.838;16.838;2023-06-10T17:05:12;42.40;25.10
64561;DHT22;50960;46.838;16.838;2023-06-10T17:19:52;44.30;20.80
64561;DHT22;50960;46.838;16.838;2023-06-10T17:22:18;44.30;23.30
64561;DHT22;50960;46.838;16.838;2023-06-10T17:24:44;41.10;24.20
64561;DHT22;50960;46.838;16.838;2023-06-10T17:27:11;40.10;35.10
64561;DHT22;50960;46.838;16.838;2023-06-10T17:29:37;36.60;27.80
64561;DHT22;50960;46.838;16.838;2023-06-10T17:32:05;35.70;29.10
64561;DHT22;50960;46.838;16.838;2023-06-10T17:34:31;34.80;30.00
64561;DHT22;50960;46.838;16.838;2023-06-10T17:36:58;34.10;32.70
64561;DHT22;50960;46.838;16.838;2023-06-10T17:39:24;33.60;34.50
64561;DHT22;50960;46.838;16.838;2023-06-10T17:41:50;32.80;37.00
64561;DHT22;50960;46.838;16.838;2023-06-10T17:44:20;31.70;37.40
64561;DHT22;50960;46.838;16.838;2023-06-10T17:46:51;32.00;37.90
64561;DHT22;50960;46.838;16.838;2023-06-10T17:49:17;31.50;40.10
64561;DHT22;50960;46.838;16.838;2023-06-10T17:51:44;30.70;42.30
64561;DHT22;50960;46.838;16.838;2023-06-10T17:54:10;30.30;44.20
64561;DHT22;50960;46.838;16.838;2023-06-10T17:56:37;29.40;46.20
64561;DHT22;50960;46.838;16.838;2023-06-10T17:59:03;28.70;48.10
64561;DHT22;50960;46.838;16.838;2023-06-10T18:01:29;28.50;49.20
64561;DHT22;50960;46.838;16.838;2023-06-10T18:03:55;28.30;49.20
64561;DHT22;50960;46.838;16.838;2023-06-10T18:06:22;28.10;50.50
64561;DHT22;50960;46.838;16.838;2023-06-10T18:08:48;27.60;50.70
64561;DHT22;50960;46.838;16.838;2023-06-10T18:11:14;27.30;52.50
64561;DHT22;50960;46.838;16.838;2023-06-10T18:13:41;27.20;53.80
64561;DHT22;50960;46.838;16.838;2023-06-10T18:16:07;27.10;54.30
64561;DHT22;50960;46.838;16.838;2023-06-10T18:18:34;26.80;55.90
64561;DHT22;50960;46.838;16.838;2023-06-10T18:21:00;26.50;57.20
64561;DHT22;50960;46.838;16.838;2023-06-10T18:23:26;26.40;57.50
64561;DHT22;50960;46.838;16.838;2023-06-10T18:25:54;26.30;57.80
64561;DHT22;50960;46.838;16.838;2023-06-10T18:28:21;26.00;60.10
64561;DHT22;50960;46.838;16.838;2023-06-10T18:30:49;25.60;61.00
64561;DHT22;50960;46.838;16.838;2023-06-10T18:33:15;25.30;62.70
64561;DHT22;50960;46.838;16.838;2023-06-10T18:35:41;25.20;63.30
64561;DHT22;50960;46.838;16.838;2023-06-10T18:38:09;24.70;65.80
64561;DHT22;50960;46.838;16.838;2023-06-10T18:40:35;24.30;66.80
64561;DHT22;50960;46.838;16.838;2023-06-10T18:43:01;24.00;68.90
64561;DHT22;50960;46.838;16.838;2023-06-10T18:45:28;23.80;70.20
64561;DHT22;50960;46.838;16.838;2023-06-10T18:47:54;23.80;70.50
64561;DHT22;50960;46.838;16.838;2023-06-10T18:50:21;23.70;72.30
64561;DHT22;50960;46.838;16.838;2023-06-10T18:52:47;23.30;73.50
64561;DHT22;50960;46.838;16.838;2023-06-10T18:55:13;23.30;74.80
64561;DHT22;50960;46.838;16.838;2023-06-10T18:57:39;23.20;75.70
64561;DHT22;50960;46.838;16.838;2023-06-10T19:00:06;23.00;77.40
64561;DHT22;50960;46.838;16.838;2023-06-10T19:02:33;23.00;78.40
64561;DHT22;50960;46.838;16.838;2023-06-10T19:05:01;22.80;77.20
64561;DHT22;50960;46.838;16.838;2023-06-10T19:07:27;22.90;77.20
64561;DHT22;50960;46.838;16.838;2023-06-10T19:09:54;22.90;77.40
64561;DHT22;50960;46.838;16.838;2023-06-10T19:12:21;22.70;77.20
64561;DHT22;50960;46.838;16.838;2023-06-10T19:14:48;22.40;77.60
64561;DHT22;50960;46.838;16.838;2023-06-10T19:17:14;22.20;79.40
64561;DHT22;50960;46.838;16.838;2023-06-10T19:19:42;22.10;80.50
64561;DHT22;50960;46.838;16.838;2023-06-10T19:22:08;21.90;81.20
64561;DHT22;50960;46.838;16.838;2023-06-10T19:24:35;21.80;83.40
64561;DHT22;50960;46.838;16.838;2023-06-10T19:27:01;21.70;83.80
64561;DHT22;50960;46.838;16.838;2023-06-10T19:29:28;21.80;84.60
64561;DHT22;50960;46.838;16.838;2023-06-10T19:31:54;21.80;85.10
64561;DHT22;50960;46.838;16.838;2023-06-10T19:34:21;21.70;85.20
64561;DHT22;50960;46.838;16.838;2023-06-10T19:36:48;21.60;85.50
64561;DHT22;50960;46.838;16.838;2023-06-10T19:39:15;21.60;86.40
64561;DHT22;50960;46.838;16.838;2023-06-10T19:41:41;21.50;88.20
64561;DHT22;50960;46.838;16.838;2023-06-10T19:44:08;21.30;89.90
64561;DHT22;50960;46.838;16.838;2023-06-10T19:46:34;21.30;90.30
64561;DHT22;50960;46.838;16.838;2023-06-10T19:49:01;21.20;90.40
64561;DHT22;50960;46.838;16.838;2023-06-10T19:51:27;21.10;91.60
64561;DHT22;50960;46.838;16.838;2023-06-10T19:53:53;21.10;91.90
64561;DHT22;50960;46.838;16.838;2023-06-10T19:56:20;21.10;91.50
64561;DHT22;50960;46.838;16.838;2023-06-10T19:58:48;21.10;91.50
64561;DHT22;50960;46.838;16.838;2023-06-10T20:01:15;21.10;91.90
64561;DHT22;50960;46.838;16.838;2023-06-10T20:03:41;21.00;91.90
64561;DHT22;50960;46.838;16.838;2023-06-10T20:06:07;21.00;92.30
64561;DHT22;50960;46.838;16.838;2023-06-10T20:08:34;20.90;92.40
64561;DHT22;50960;46.838;16.838;2023-06-10T20:11:01;20.90;92.70
64561;DHT22;50960;46.838;16.838;2023-06-10T20:13:27;20.80;92.50
64561;DHT22;50960;46.838;16.838;2023-06-10T20:15:54;20.80;92.20
64561;DHT22;50960;46.838;16.838;2023-06-10T20:18:21;20.80;92.60